地図

経路データ

SID SEASON NUMBER BASIN SUBBASIN NAME ISO_TIME NATURE LAT LON WMO_WIND WMO_PRES WMO_AGENCY TRACK_TYPE DIST2LAND LANDFALL IFLAG USA_AGENCY USA_ATCF_ID USA_LAT USA_LON USA_RECORD USA_STATUS USA_WIND USA_PRES USA_SSHS USA_R34_NE USA_R34_SE USA_R34_SW USA_R34_NW USA_R50_NE USA_R50_SE USA_R50_SW USA_R50_NW USA_R64_NE USA_R64_SE USA_R64_SW USA_R64_NW USA_POCI USA_ROCI USA_RMW USA_EYE TOKYO_LAT TOKYO_LON TOKYO_GRADE TOKYO_WIND TOKYO_PRES TOKYO_R50_DIR TOKYO_R50_LONG TOKYO_R50_SHORT TOKYO_R30_DIR TOKYO_R30_LONG TOKYO_R30_SHORT TOKYO_LAND CMA_LAT CMA_LON CMA_CAT CMA_WIND CMA_PRES HKO_LAT HKO_LON HKO_CAT HKO_WIND HKO_PRES NEWDELHI_LAT NEWDELHI_LON NEWDELHI_GRADE NEWDELHI_WIND NEWDELHI_PRES NEWDELHI_CI NEWDELHI_DP NEWDELHI_POCI REUNION_LAT REUNION_LON REUNION_TYPE REUNION_WIND REUNION_PRES REUNION_TNUM REUNION_CI REUNION_RMW REUNION_R34_NE REUNION_R34_SE REUNION_R34_SW REUNION_R34_NW REUNION_R50_NE REUNION_R50_SE REUNION_R50_SW REUNION_R50_NW REUNION_R64_NE REUNION_R64_SE REUNION_R64_SW REUNION_R64_NW BOM_LAT BOM_LON BOM_TYPE BOM_WIND BOM_PRES BOM_TNUM BOM_CI BOM_RMW BOM_R34_NE BOM_R34_SE BOM_R34_SW BOM_R34_NW BOM_R50_NE BOM_R50_SE BOM_R50_SW BOM_R50_NW BOM_R64_NE BOM_R64_SE BOM_R64_SW BOM_R64_NW BOM_ROCI BOM_POCI BOM_EYE BOM_POS_METHOD BOM_PRES_METHOD NADI_LAT NADI_LON NADI_CAT NADI_WIND NADI_PRES WELLINGTON_LAT WELLINGTON_LON WELLINGTON_WIND WELLINGTON_PRES DS824_LAT DS824_LON DS824_STAGE DS824_WIND DS824_PRES TD9636_LAT TD9636_LON TD9636_STAGE TD9636_WIND TD9636_PRES TD9635_LAT TD9635_LON TD9635_WIND TD9635_PRES TD9635_ROCI NEUMANN_LAT NEUMANN_LON NEUMANN_CLASS NEUMANN_WIND NEUMANN_PRES MLC_LAT MLC_LON MLC_CLASS MLC_WIND MLC_PRES USA_GUST BOM_GUST BOM_GUST_PER REUNION_GUST REUNION_GUST_PER USA_SEAHGT USA_SEARAD_NE USA_SEARAD_SE USA_SEARAD_SW USA_SEARAD_NW STORM_SPEED STORM_DIR
1934330N05147 1934 82 WP MM NOT_NAMED 1934-11-26 10:00:00 NR 5.10000 146.800 main 806 806 __________O___ -1 5.10000 146.800 7 26 285
1934330N05147 1934 82 WP MM NOT_NAMED 1934-11-26 12:00:00 NR 5.32836 145.973 main 831 832 __________P___ -1 5.32836 145.973 7 25 286
1934330N05147 1934 82 WP MM NOT_NAMED 1934-11-26 15:00:00 NR 5.66551 144.766 main 896 899 __________P___ -1 5.66551 144.766 7 24 286
1934330N05147 1934 82 WP MM NOT_NAMED 1934-11-26 18:00:00 NR 5.99139 143.650 main 963 967 __________P___ -1 5.99139 143.650 7 22 287
1934330N05147 1934 82 WP MM NOT_NAMED 1934-11-26 21:00:00 NR 6.30111 142.681 main 1008 1005 __________P___ -1 6.30111 142.681 7 20 288
1934330N05147 1934 82 WP MM NOT_NAMED 1934-11-26 22:00:00 NR 6.40000 142.400 main 1006 999 __________O___ -1 6.40000 142.400 7 16 291
1934330N05147 1934 82 WP MM NOT_NAMED 1934-11-27 00:00:00 NR 6.59059 141.908 main 1006 1002 __________P___ -1 6.59059 141.908 7 14 293
1934330N05147 1934 82 WP MM NOT_NAMED 1934-11-27 03:00:00 NR 6.85859 141.308 main 1012 1005 __________P___ -1 6.85859 141.308 7 12 295
1934330N05147 1934 82 WP MM NOT_NAMED 1934-11-27 06:00:00 NR 7.10518 140.814 main 1016 1013 __________P___ -1 7.10518 140.814 7 11 297
1934330N05147 1934 82 WP MM NOT_NAMED 1934-11-27 09:00:00 NR 7.33001 140.356 main 1026 1024 __________P___ -1 7.33001 140.356 7 10 296
1934330N05147 1934 82 WP MM NOT_NAMED 1934-11-27 10:00:00 NR 7.40000 140.200 main 1032 1030 __________O___ -1 7.40000 140.200 7 10 291
1934330N05147 1934 82 WP MM NOT_NAMED 1934-11-27 12:00:00 NR 7.52020 139.864 main 1030 1022 __________P___ -1 7.52020 139.864 7 11 289
1934330N05147 1934 82 WP MM NOT_NAMED 1934-11-27 15:00:00 NR 7.68146 139.362 main 1028 1016 __________P___ -1 7.68146 139.362 7 11 287
1934330N05147 1934 82 WP MM NOT_NAMED 1934-11-27 18:00:00 NR 7.84241 138.827 main 1016 1016 __________P___ -1 7.84241 138.827 7 12 287
1934330N05147 1934 82 WP MM NOT_NAMED 1934-11-27 21:00:00 NR 8.02822 138.223 main 1016 1016 __________P___ -1 8.02822 138.223 7 13 287
1934330N05147 1934 82 WP MM NOT_NAMED 1934-11-27 22:00:00 NR 8.10000 138.000 main 1021 1018 __________O___ -1 8.10000 138.000 7 15 290
1934330N05147 1934 82 WP MM NOT_NAMED 1934-11-28 00:00:00 NR 8.28715 137.515 main 1030 1028 __________P___ -1 8.28715 137.515 7 16 291
1934330N05147 1934 82 WP MM NOT_NAMED 1934-11-28 03:00:00 NR 8.59968 136.712 main 1049 1022 __________P___ -1 8.59968 136.712 7 18 291
1934330N05147 1934 82 WP MM NOT_NAMED 1934-11-28 06:00:00 NR 8.91994 135.838 main 1022 929 __________P___ -1 8.91994 135.838 7 19 289
1934330N05147 1934 82 WP MM NOT_NAMED 1934-11-28 09:00:00 NR 9.21378 134.915 main 929 909 __________P___ -1 9.21378 134.915 7 19 287
1934330N05147 1934 82 WP MM NOT_NAMED 1934-11-28 10:00:00 NR 9.30000 134.600 main 898 836 __________O___ -1 9.30000 134.600 7 20 283
1934330N05147 1934 82 WP MM NOT_NAMED 1934-11-28 12:00:00 NR 9.43707 133.955 main 836 735 __________P___ -1 9.43707 133.955 7 20 281
1934330N05147 1934 82 WP MM NOT_NAMED 1934-11-28 15:00:00 NR 9.60492 132.955 main 735 634 __________P___ -1 9.60492 132.955 7 20 279
1934330N05147 1934 82 WP MM NOT_NAMED 1934-11-28 18:00:00 NR 9.74097 131.956 main 634 530 __________P___ -1 9.74097 131.956 7 19 278
1934330N05147 1934 82 WP MM NOT_NAMED 1934-11-28 21:00:00 NR 9.86086 131.001 main 530 498 __________P___ -1 9.86086 131.001 7 19 277
1934330N05147 1934 82 WP MM NOT_NAMED 1934-11-28 22:00:00 NR 9.90000 130.700 main 498 437 __________O___ -1 9.90000 130.700 7 17 278
1934330N05147 1934 82 WP MM NOT_NAMED 1934-11-29 00:00:00 NR 9.97765 130.143 main 437 365 __________P___ -1 9.97765 130.143 7 16 278
1934330N05147 1934 82 WP MM NOT_NAMED 1934-11-29 03:00:00 NR 10.0883 129.365 main 365 286 __________P___ -1 10.0883 129.365 7 15 279
1934330N05147 1934 82 WP MM NOT_NAMED 1934-11-29 06:00:00 NR 10.2059 128.635 main 286 223 __________P___ -1 10.2059 128.635 7 14 280
1934330N05147 1934 82 WP MM NOT_NAMED 1934-11-29 09:00:00 NR 10.3458 127.932 main 223 211 __________P___ -1 10.3458 127.932 7 14 282
1934330N05147 1934 82 WP MM NOT_NAMED 1934-11-29 10:00:00 NR 10.4000 127.700 main 211 162 __________O___ -1 10.4000 127.700 3 15 284
1934330N05147 1934 82 WP MM NOT_NAMED 1934-11-29 12:00:00 NR 10.5297 127.196 main 162 83 __________P___ -1 10.5297 127.196 3 15 286
1934330N05147 1934 82 WP MM NOT_NAMED 1934-11-29 15:00:00 NR 10.7498 126.452 main 83 0 __________P___ -1 10.7498 126.452 3 15 288
1934330N05147 1934 82 WP MM NOT_NAMED 1934-11-29 18:00:00 NR 10.9863 125.744 main 10 0 __________P___ -1 10.9863 125.744 3 14 290
1934330N05147 1934 82 WP MM NOT_NAMED 1934-11-29 21:00:00 NR 11.2235 125.097 main 10 0 __________P___ -1 11.2235 125.097 3 13 291
1934330N05147 1934 82 WP MM NOT_NAMED 1934-11-29 22:00:00 NR 11.3000 124.900 main 0 0 __________O___ -1 11.3000 124.900 4 12 291
1934330N05147 1934 82 WP MM NOT_NAMED 1934-11-30 00:00:00 NR 11.4358 124.543 main 0 0 __________P___ -1 11.4358 124.543 4 11 292
1934330N05147 1934 82 WP MM NOT_NAMED 1934-11-30 03:00:00 NR 11.6336 124.070 main 11 10 __________P___ -1 11.6336 124.070 4 10 294
1934330N05147 1934 82 WP MM NOT_NAMED 1934-11-30 06:00:00 NR 11.8299 123.645 main 15 10 __________P___ -1 11.8299 123.645 4 9 296
1934330N05147 1934 82 WP MM NOT_NAMED 1934-11-30 09:00:00 NR 12.0309 123.238 main 15 10 __________P___ -1 12.0309 123.238 4 9 297
1934330N05147 1934 82 WP MM NOT_NAMED 1934-11-30 10:00:00 NR 12.1000 123.100 main 15 15 __________O___ -1 12.1000 123.100 4 9 295
1934330N05147 1934 82 WP MM NOT_NAMED 1934-11-30 12:00:00 NR 12.2310 122.800 main 43 43 __________P___ -1 12.2310 122.800 4 10 294
1934330N05147 1934 82 WP MM NOT_NAMED 1934-11-30 15:00:00 NR 12.4337 122.349 main 68 32 __________P___ -1 12.4337 122.349 4 10 296
1934330N05147 1934 82 WP MM NOT_NAMED 1934-11-30 18:00:00 NR 12.6548 121.899 main 34 0 __________P___ -1 12.6548 121.899 4 10 298
1934330N05147 1934 82 WP MM NOT_NAMED 1934-11-30 21:00:00 NR 12.9069 121.450 main 0 0 __________P___ -1 12.9069 121.450 4 10 301
1934330N05147 1934 82 WP MM NOT_NAMED 1934-11-30 22:00:00 NR 13.0000 121.300 main 0 0 __________O___ -1 13.0000 121.300 4 11 306
1934330N05147 1934 82 WP MM NOT_NAMED 1934-12-01 00:00:00 NR 13.2176 121.008 main 0 0 __________P___ -1 13.2176 121.008 4 11 309
1934330N05147 1934 82 WP MM NOT_NAMED 1934-12-01 03:00:00 NR 13.5760 120.570 main 22 15 __________P___ -1 13.5760 120.570 4 11 310
1934330N05147 1934 82 WP MM NOT_NAMED 1934-12-01 06:00:00 NR 13.9451 120.124 main 53 53 __________P___ -1 13.9451 120.124 4 11 309
1934330N05147 1934 82 WP MM NOT_NAMED 1934-12-01 09:00:00 NR 14.2938 119.660 main 70 70 __________P___ -1 14.2938 119.660 4 11 307
1934330N05147 1934 82 WP MM NOT_NAMED 1934-12-01 10:00:00 NR 14.4000 119.500 main 78 78 __________O___ -1 14.4000 119.500 4 11 302
1934330N05147 1934 82 WP MM NOT_NAMED 1934-12-01 12:00:00 NR 14.5943 119.157 main 99 109 __________P___ -1 14.5943 119.157 4 12 298
1934330N05147 1934 82 WP MM NOT_NAMED 1934-12-01 15:00:00 NR 14.8547 118.622 main 150 150 __________P___ -1 14.8547 118.622 4 11 295
1934330N05147 1934 82 WP MM NOT_NAMED 1934-12-01 18:00:00 NR 15.0747 118.085 main 196 196 __________P___ -1 15.0747 118.085 4 11 291
1934330N05147 1934 82 WP MM NOT_NAMED 1934-12-01 21:00:00 NR 15.2513 117.565 main 238 248 __________P___ -1 15.2513 117.565 4 10 289
1934330N05147 1934 82 WP MM NOT_NAMED 1934-12-01 22:00:00 NR 15.3000 117.400 main 258 258 __________O___ -1 15.3000 117.400 4 9 287
1934330N05147 1934 82 WP MM NOT_NAMED 1934-12-02 00:00:00 NR 15.3917 117.096 main 286 286 __________P___ -1 15.3917 117.096 4 9 285
1934330N05147 1934 82 WP MM NOT_NAMED 1934-12-02 03:00:00 NR 15.4919 116.666 main 326 336 __________P___ -1 15.4919 116.666 4 8 281
1934330N05147 1934 82 WP MM NOT_NAMED 1934-12-02 06:00:00 NR 15.5556 116.252 main 366 377 __________P___ -1 15.5556 116.252 4 8 277
1934330N05147 1934 82 WP MM NOT_NAMED 1934-12-02 09:00:00 NR 15.5922 115.840 main 419 419 __________P___ -1 15.5922 115.840 4 8 275
1934330N05147 1934 82 WP MM NOT_NAMED 1934-12-02 10:00:00 NR 15.6000 115.700 main 430 430 __________O___ -1 15.6000 115.700 4 8 273
1934330N05147 1934 82 WP MM NOT_NAMED 1934-12-02 12:00:00 NR 15.6106 115.414 main 462 462 __________P___ -1 15.6106 115.414 4 8 271
1934330N05147 1934 82 WP MM NOT_NAMED 1934-12-02 15:00:00 NR 15.6163 114.971 main 505 515 __________P___ -1 15.6163 114.971 4 9 270
1934330N05147 1934 82 WP MM NOT_NAMED 1934-12-02 18:00:00 NR 15.6129 114.516 main 555 523 __________P___ -1 15.6129 114.516 4 9 269
1934330N05147 1934 82 WP MM NOT_NAMED 1934-12-02 21:00:00 NR 15.6037 114.054 main 523 508 __________P___ -1 15.6037 114.054 4 9 269
1934330N05147 1934 82 WP MM NOT_NAMED 1934-12-02 22:00:00 NR 15.6000 113.900 main 508 __________O___ -1 15.6000 113.900 7 9 269

デジタル台風データ・検索

IBTrACS Databaseについて

本データベースは、米国NOAAが公開する1842年以降の世界の熱帯低気圧のベストトラックデータアーカイブInternational Best Track Archive for Climate Stewardship (IBTrACS)を、ウェブで閲覧しやすい形式に変換したものです。

最終更新日:2021-12-03